地図

経路データ

SID SEASON NUMBER BASIN SUBBASIN NAME ISO_TIME NATURE LAT LON WMO_WIND WMO_PRES WMO_AGENCY TRACK_TYPE DIST2LAND LANDFALL IFLAG USA_AGENCY USA_ATCF_ID USA_LAT USA_LON USA_RECORD USA_STATUS USA_WIND USA_PRES USA_SSHS USA_R34_NE USA_R34_SE USA_R34_SW USA_R34_NW USA_R50_NE USA_R50_SE USA_R50_SW USA_R50_NW USA_R64_NE USA_R64_SE USA_R64_SW USA_R64_NW USA_POCI USA_ROCI USA_RMW USA_EYE TOKYO_LAT TOKYO_LON TOKYO_GRADE TOKYO_WIND TOKYO_PRES TOKYO_R50_DIR TOKYO_R50_LONG TOKYO_R50_SHORT TOKYO_R30_DIR TOKYO_R30_LONG TOKYO_R30_SHORT TOKYO_LAND CMA_LAT CMA_LON CMA_CAT CMA_WIND CMA_PRES HKO_LAT HKO_LON HKO_CAT HKO_WIND HKO_PRES NEWDELHI_LAT NEWDELHI_LON NEWDELHI_GRADE NEWDELHI_WIND NEWDELHI_PRES NEWDELHI_CI NEWDELHI_DP NEWDELHI_POCI REUNION_LAT REUNION_LON REUNION_TYPE REUNION_WIND REUNION_PRES REUNION_TNUM REUNION_CI REUNION_RMW REUNION_R34_NE REUNION_R34_SE REUNION_R34_SW REUNION_R34_NW REUNION_R50_NE REUNION_R50_SE REUNION_R50_SW REUNION_R50_NW REUNION_R64_NE REUNION_R64_SE REUNION_R64_SW REUNION_R64_NW BOM_LAT BOM_LON BOM_TYPE BOM_WIND BOM_PRES BOM_TNUM BOM_CI BOM_RMW BOM_R34_NE BOM_R34_SE BOM_R34_SW BOM_R34_NW BOM_R50_NE BOM_R50_SE BOM_R50_SW BOM_R50_NW BOM_R64_NE BOM_R64_SE BOM_R64_SW BOM_R64_NW BOM_ROCI BOM_POCI BOM_EYE BOM_POS_METHOD BOM_PRES_METHOD NADI_LAT NADI_LON NADI_CAT NADI_WIND NADI_PRES WELLINGTON_LAT WELLINGTON_LON WELLINGTON_WIND WELLINGTON_PRES DS824_LAT DS824_LON DS824_STAGE DS824_WIND DS824_PRES TD9636_LAT TD9636_LON TD9636_STAGE TD9636_WIND TD9636_PRES TD9635_LAT TD9635_LON TD9635_WIND TD9635_PRES TD9635_ROCI NEUMANN_LAT NEUMANN_LON NEUMANN_CLASS NEUMANN_WIND NEUMANN_PRES MLC_LAT MLC_LON MLC_CLASS MLC_WIND MLC_PRES USA_GUST BOM_GUST BOM_GUST_PER REUNION_GUST REUNION_GUST_PER USA_SEAHGT USA_SEARAD_NE USA_SEARAD_SE USA_SEARAD_SW USA_SEARAD_NW STORM_SPEED STORM_DIR
1886265N20133 1886 35 WP MM NOT_NAMED 1886-09-21 16:00:00 NR 19.5000 132.800 main 1092 1001 __________O___ -1 19.5000 132.800 7 33 293
1886265N20133 1886 35 WP MM NOT_NAMED 1886-09-21 18:00:00 NR 19.9371 131.725 main 1001 863 __________P___ -1 19.9371 131.725 7 32 293
1886265N20133 1886 35 WP MM NOT_NAMED 1886-09-21 21:00:00 NR 20.5722 130.171 main 863 748 __________P___ -1 20.5722 130.171 7 30 294
1886265N20133 1886 35 WP MM NOT_NAMED 1886-09-22 00:00:00 NR 21.1714 128.786 main 748 666 __________P___ -1 21.1714 128.786 7 26 296
1886265N20133 1886 35 WP MM NOT_NAMED 1886-09-22 03:00:00 NR 21.7261 127.685 main 666 630 __________P___ -1 21.7261 127.685 7 22 300
1886265N20133 1886 35 WP MM NOT_NAMED 1886-09-22 04:00:00 NR 21.9000 127.400 main 630 580 __________O___ -1 21.9000 127.400 7 17 307
1886265N20133 1886 35 WP MM NOT_NAMED 1886-09-22 06:00:00 NR 22.2312 126.970 main 580 519 __________P___ -1 22.2312 126.970 7 13 318
1886265N20133 1886 35 WP MM NOT_NAMED 1886-09-22 09:00:00 NR 22.6955 126.630 main 519 502 __________P___ -1 22.6955 126.630 7 10 338
1886265N20133 1886 35 WP MM NOT_NAMED 1886-09-22 12:00:00 NR 23.1339 126.578 main 502 492 __________P___ -1 23.1339 126.578 7 9 6
1886265N20133 1886 35 WP MM NOT_NAMED 1886-09-22 15:00:00 NR 23.5591 126.723 main 497 497 __________P___ -1 23.5591 126.723 7 9 20
1886265N20133 1886 35 WP MM NOT_NAMED 1886-09-22 16:00:00 NR 23.7000 126.800 main 505 502 __________O___ -1 23.7000 126.800 7 10 23
1886265N20133 1886 35 WP MM NOT_NAMED 1886-09-22 18:00:00 NR 24.0131 126.933 main 507 507 __________P___ -1 24.0131 126.933 7 11 28
1886265N20133 1886 35 WP MM NOT_NAMED 1886-09-22 21:00:00 NR 24.4770 127.260 main 537 536 __________P___ -1 24.4770 127.260 7 11 37
1886265N20133 1886 35 WP MM NOT_NAMED 1886-09-23 00:00:00 NR 24.9110 127.669 main 574 573 __________P___ -1 24.9110 127.669 7 11 42
1886265N20133 1886 35 WP MM NOT_NAMED 1886-09-23 03:00:00 NR 25.2901 128.078 main 614 614 __________P___ -1 25.2901 128.078 7 10 44
1886265N20133 1886 35 WP MM NOT_NAMED 1886-09-23 04:00:00 NR 25.4000 128.200 main 624 624 __________O___ -1 25.4000 128.200 7 8 42
1886265N20133 1886 35 WP MM NOT_NAMED 1886-09-23 06:00:00 NR 25.5817 128.366 main 643 615 __________P___ -1 25.5817 128.366 7 6 41
1886265N20133 1886 35 WP MM NOT_NAMED 1886-09-23 09:00:00 NR 25.7977 128.576 main 615 588 __________P___ -1 25.7977 128.576 7 5 42
1886265N20133 1886 35 WP MM NOT_NAMED 1886-09-23 12:00:00 NR 25.9738 128.760 main 588 574 __________P___ -1 25.9738 128.760 7 5 43
1886265N20133 1886 35 WP MM NOT_NAMED 1886-09-23 15:00:00 NR 26.1409 128.938 main 574 560 __________P___ -1 26.1409 128.938 7 5 44
1886265N20133 1886 35 WP MM NOT_NAMED 1886-09-23 16:00:00 NR 26.2000 129.000 main 560 547 __________O___ -1 26.2000 129.000 7 5 42
1886265N20133 1886 35 WP MM NOT_NAMED 1886-09-23 18:00:00 NR 26.3282 129.132 main 547 520 __________P___ -1 26.3282 129.132 7 6 42
1886265N20133 1886 35 WP MM NOT_NAMED 1886-09-23 21:00:00 NR 26.5422 129.348 main 520 480 __________P___ -1 26.5422 129.348 7 6 42
1886265N20133 1886 35 WP MM NOT_NAMED 1886-09-24 00:00:00 NR 26.7749 129.579 main 480 454 __________P___ -1 26.7749 129.579 7 6 42
1886265N20133 1886 35 WP MM NOT_NAMED 1886-09-24 03:00:00 NR 27.0180 129.819 main 454 442 __________P___ -1 27.0180 129.819 7 7 41
1886265N20133 1886 35 WP MM NOT_NAMED 1886-09-24 04:00:00 NR 27.1000 129.900 main 442 __________O___ -1 27.1000 129.900 7 7 38

デジタル台風データ・検索

IBTrACS Databaseについて

本データベースは、米国NOAAが公開する1842年以降の世界の熱帯低気圧のベストトラックデータアーカイブInternational Best Track Archive for Climate Stewardship (IBTrACS)を、ウェブで閲覧しやすい形式に変換したものです。

最終更新日:2021-10-27